sensor_id;sensor_type;location;lat;lon;timestamp;pressure;altitude;pressure_sealevel;temperature;humidity
75188;BME280;63762;51.334;22.108;2023-05-16T00:04:53;101048.62;;;13.87;80.20
75188;BME280;63762;51.334;22.108;2023-05-16T00:15:00;101061.67;;;13.82;79.86
75188;BME280;63762;51.334;22.108;2023-05-16T00:25:08;101064.52;;;13.60;80.32
75188;BME280;63762;51.334;22.108;2023-05-16T00:35:15;101077.34;;;13.58;79.69
75188;BME280;63762;51.334;22.108;2023-05-16T00:45:22;101078.16;;;13.37;79.96
75188;BME280;63762;51.334;22.108;2023-05-16T00:55:29;101098.48;;;13.32;80.11
75188;BME280;63762;51.334;22.108;2023-05-16T01:05:36;101099.66;;;13.18;80.14
75188;BME280;63762;51.334;22.108;2023-05-16T01:15:47;101092.84;;;13.03;80.36
75188;BME280;63762;51.334;22.108;2023-05-16T01:46:25;101133.78;;;12.55;81.41
75188;BME280;63762;51.334;22.108;2023-05-16T01:56:30;101121.90;;;12.46;81.16
75188;BME280;63762;51.334;22.108;2023-05-16T02:06:32;101137.13;;;12.36;81.05
75188;BME280;63762;51.334;22.108;2023-05-16T02:16:33;101132.34;;;12.29;81.20
75188;BME280;63762;51.334;22.108;2023-05-16T02:26:34;101146.68;;;12.40;80.74
75188;BME280;63762;51.334;22.108;2023-05-16T02:36:40;101149.50;;;12.39;79.77
75188;BME280;63762;51.334;22.108;2023-05-16T02:46:47;101158.69;;;12.47;79.21
75188;BME280;63762;51.334;22.108;2023-05-16T02:56:54;101149.88;;;12.45;78.58
75188;BME280;63762;51.334;22.108;2023-05-16T03:07:01;101148.17;;;12.44;78.32
75188;BME280;63762;51.334;22.108;2023-05-16T03:17:09;101159.21;;;12.41;78.30
75188;BME280;63762;51.334;22.108;2023-05-16T03:27:16;101173.91;;;12.37;78.35
75188;BME280;63762;51.334;22.108;2023-05-16T03:37:24;101185.22;;;12.31;78.61
75188;BME280;63762;51.334;22.108;2023-05-16T03:47:30;101181.76;;;12.40;78.72
75188;BME280;63762;51.334;22.108;2023-05-16T03:57:37;101202.50;;;12.51;78.65
75188;BME280;63762;51.334;22.108;2023-05-16T04:07:44;101199.68;;;12.52;79.00
75188;BME280;63762;51.334;22.108;2023-05-16T04:17:51;101210.34;;;12.65;78.95
75188;BME280;63762;51.334;22.108;2023-05-16T04:27:58;101219.30;;;12.65;79.28
75188;BME280;63762;51.334;22.108;2023-05-16T04:38:06;101218.92;;;12.81;79.12
75188;BME280;63762;51.334;22.108;2023-05-16T04:48:13;101227.99;;;12.91;78.89
75188;BME280;63762;51.334;22.108;2023-05-16T04:58:20;101241.00;;;12.97;78.99
75188;BME280;63762;51.334;22.108;2023-05-16T05:08:27;101256.21;;;13.20;78.51
75188;BME280;63762;51.334;22.108;2023-05-16T05:18:34;101251.27;;;13.36;78.62
75188;BME280;63762;51.334;22.108;2023-05-16T05:28:41;101254.65;;;13.60;77.31
75188;BME280;63762;51.334;22.108;2023-05-16T05:38:49;101254.12;;;13.98;76.80
75188;BME280;63762;51.334;22.108;2023-05-16T05:48:55;101259.18;;;14.23;76.00
75188;BME280;63762;51.334;22.108;2023-05-16T05:59:03;101248.77;;;14.48;74.78
75188;BME280;63762;51.334;22.108;2023-05-16T06:09:10;101263.19;;;14.79;73.43
75188;BME280;63762;51.334;22.108;2023-05-16T06:19:17;101259.08;;;15.24;72.68
75188;BME280;63762;51.334;22.108;2023-05-16T06:29:24;101299.31;;;15.68;70.18
75188;BME280;63762;51.334;22.108;2023-05-16T06:39:32;101310.33;;;16.14;68.77
75188;BME280;63762;51.334;22.108;2023-05-16T06:49:38;101306.13;;;16.77;66.59
75188;BME280;63762;51.334;22.108;2023-05-16T06:59:45;101330.02;;;17.19;65.62
75188;BME280;63762;51.334;22.108;2023-05-16T07:09:52;101349.10;;;17.73;63.21
75188;BME280;63762;51.334;22.108;2023-05-16T07:20:00;101347.41;;;18.08;62.66
75188;BME280;63762;51.334;22.108;2023-05-16T07:30:08;101319.71;;;18.30;61.33
75188;BME280;63762;51.334;22.108;2023-05-16T07:40:14;101319.90;;;18.71;60.20
75188;BME280;63762;51.334;22.108;2023-05-16T07:50:21;101323.73;;;19.12;58.29
75188;BME280;63762;51.334;22.108;2023-05-16T08:00:28;101323.53;;;19.31;55.87
75188;BME280;63762;51.334;22.108;2023-05-16T08:10:35;101320.41;;;19.59;54.25
75188;BME280;63762;51.334;22.108;2023-05-16T08:20:42;101323.08;;;19.18;55.15
75188;BME280;63762;51.334;22.108;2023-05-16T08:30:49;101340.75;;;19.73;57.30
75188;BME280;63762;51.334;22.108;2023-05-16T08:40:57;101347.99;;;19.98;53.43
75188;BME280;63762;51.334;22.108;2023-05-16T08:51:05;101342.16;;;19.85;55.09
75188;BME280;63762;51.334;22.108;2023-05-16T09:01:14;101357.95;;;20.15;54.85
75188;BME280;63762;51.334;22.108;2023-05-16T09:11:18;101366.17;;;20.31;53.87
75188;BME280;63762;51.334;22.108;2023-05-16T09:21:30;101384.28;;;20.24;54.22
75188;BME280;63762;51.334;22.108;2023-05-16T09:31:32;101382.80;;;20.54;53.80
75188;BME280;63762;51.334;22.108;2023-05-16T09:41:40;101381.24;;;20.59;51.60
75188;BME280;63762;51.334;22.108;2023-05-16T09:51:46;101379.88;;;20.63;54.43
75188;BME280;63762;51.334;22.108;2023-05-16T10:01:57;101395.45;;;20.79;53.09
75188;BME280;63762;51.334;22.108;2023-05-16T10:12:02;101408.96;;;20.80;53.96
75188;BME280;63762;51.334;22.108;2023-05-16T10:22:09;101392.54;;;21.04;52.54
75188;BME280;63762;51.334;22.108;2023-05-16T10:32:15;101394.55;;;21.89;50.30
75188;BME280;63762;51.334;22.108;2023-05-16T10:42:22;101405.88;;;22.17;51.24
75188;BME280;63762;51.334;22.108;2023-05-16T10:52:33;101407.57;;;22.18;49.64
75188;BME280;63762;51.334;22.108;2023-05-16T11:02:40;101395.16;;;22.30;49.64
75188;BME280;63762;51.334;22.108;2023-05-16T11:12:47;101403.06;;;22.25;49.69
75188;BME280;63762;51.334;22.108;2023-05-16T11:22:51;101402.62;;;22.89;48.91
75188;BME280;63762;51.334;22.108;2023-05-16T11:32:58;101405.67;;;22.94;47.84
75188;BME280;63762;51.334;22.108;2023-05-16T11:43:05;101400.66;;;23.34;46.82
75188;BME280;63762;51.334;22.108;2023-05-16T11:53:12;101402.75;;;22.95;43.30
75188;BME280;63762;51.334;22.108;2023-05-16T12:03:19;101413.49;;;22.60;46.90
75188;BME280;63762;51.334;22.108;2023-05-16T12:13:26;101404.04;;;22.32;45.74
75188;BME280;63762;51.334;22.108;2023-05-16T12:23:33;101416.05;;;22.84;46.34
75188;BME280;63762;51.334;22.108;2023-05-16T12:33:40;101405.02;;;23.29;44.78
75188;BME280;63762;51.334;22.108;2023-05-16T12:43:49;101384.98;;;23.20;44.29
75188;BME280;63762;51.334;22.108;2023-05-16T12:53:55;101399.80;;;23.34;44.21
75188;BME280;63762;51.334;22.108;2023-05-16T13:04:02;101405.61;;;23.53;41.96
75188;BME280;63762;51.334;22.108;2023-05-16T13:14:09;101414.03;;;23.52;44.53
75188;BME280;63762;51.334;22.108;2023-05-16T13:24:16;101406.62;;;23.67;43.67
75188;BME280;63762;51.334;22.108;2023-05-16T13:34:23;101401.59;;;23.85;44.22
75188;BME280;63762;51.334;22.108;2023-05-16T13:44:31;101402.86;;;23.68;43.49
75188;BME280;63762;51.334;22.108;2023-05-16T13:54:37;101403.55;;;23.18;43.08
75188;BME280;63762;51.334;22.108;2023-05-16T14:04:44;101405.03;;;23.06;42.66
75188;BME280;63762;51.334;22.108;2023-05-16T14:14:52;101410.70;;;23.05;42.63
75188;BME280;63762;51.334;22.108;2023-05-16T14:24:59;101410.23;;;23.01;44.67
75188;BME280;63762;51.334;22.108;2023-05-16T14:35:06;101411.90;;;22.88;44.13
75188;BME280;63762;51.334;22.108;2023-05-16T14:45:14;101411.43;;;22.62;43.27
75188;BME280;63762;51.334;22.108;2023-05-16T14:55:20;101427.65;;;22.10;44.73
75188;BME280;63762;51.334;22.108;2023-05-16T15:05:27;101436.59;;;21.49;47.13
75188;BME280;63762;51.334;22.108;2023-05-16T15:15:34;101434.42;;;20.89;50.91
75188;BME280;63762;51.334;22.108;2023-05-16T15:25:41;101450.30;;;20.61;52.77
75188;BME280;63762;51.334;22.108;2023-05-16T15:35:49;101436.24;;;20.32;53.78
75188;BME280;63762;51.334;22.108;2023-05-16T15:45:56;101442.95;;;20.04;53.84
75188;BME280;63762;51.334;22.108;2023-05-16T15:56:03;101448.28;;;19.80;55.37
75188;BME280;63762;51.334;22.108;2023-05-16T16:06:10;101450.37;;;19.52;55.75
75188;BME280;63762;51.334;22.108;2023-05-16T16:16:17;101440.50;;;19.26;56.40
75188;BME280;63762;51.334;22.108;2023-05-16T16:26:24;101432.21;;;19.18;56.81
75188;BME280;63762;51.334;22.108;2023-05-16T16:36:31;101439.05;;;19.22;57.09
75188;BME280;63762;51.334;22.108;2023-05-16T16:46:39;101444.95;;;19.09;57.64
75188;BME280;63762;51.334;22.108;2023-05-16T16:56:46;101455.85;;;19.09;57.82
75188;BME280;63762;51.334;22.108;2023-05-16T17:06:53;101456.91;;;18.91;57.20
75188;BME280;63762;51.334;22.108;2023-05-16T17:17:00;101461.44;;;18.65;57.86
75188;BME280;63762;51.334;22.108;2023-05-16T17:27:07;101472.49;;;18.46;58.61
75188;BME280;63762;51.334;22.108;2023-05-16T17:37:14;101477.41;;;18.33;59.90
75188;BME280;63762;51.334;22.108;2023-05-16T17:47:21;101481.77;;;18.26;60.63
75188;BME280;63762;51.334;22.108;2023-05-16T17:57:28;101461.76;;;18.17;60.19
75188;BME280;63762;51.334;22.108;2023-05-16T18:07:36;101469.74;;;18.01;59.86
75188;BME280;63762;51.334;22.108;2023-05-16T18:17:43;101464.83;;;17.78;60.16
75188;BME280;63762;51.334;22.108;2023-05-16T18:27:50;101473.47;;;17.63;61.03
75188;BME280;63762;51.334;22.108;2023-05-16T18:37:57;101484.25;;;17.55;61.58
75188;BME280;63762;51.334;22.108;2023-05-16T18:48:05;101493.00;;;17.49;62.17
75188;BME280;63762;51.334;22.108;2023-05-16T18:58:11;101492.42;;;17.46;63.30
75188;BME280;63762;51.334;22.108;2023-05-16T19:11:27;101487.28;;;17.33;63.79
75188;BME280;63762;51.334;22.108;2023-05-16T19:21:34;101481.02;;;17.23;63.96
75188;BME280;63762;51.334;22.108;2023-05-16T19:31:41;101473.31;;;17.09;64.38
75188;BME280;63762;51.334;22.108;2023-05-16T19:41:48;101469.32;;;16.94;64.86
75188;BME280;63762;51.334;22.108;2023-05-16T19:51:55;101457.72;;;16.92;64.78
75188;BME280;63762;51.334;22.108;2023-05-16T20:02:02;101460.17;;;16.86;64.92
75188;BME280;63762;51.334;22.108;2023-05-16T20:12:09;101450.74;;;16.80;64.89
75188;BME280;63762;51.334;22.108;2023-05-16T20:22:16;101456.75;;;16.74;64.59
75188;BME280;63762;51.334;22.108;2023-05-16T20:32:23;101436.45;;;16.69;64.61
75188;BME280;63762;51.334;22.108;2023-05-16T20:42:31;101435.01;;;16.55;64.87
75188;BME280;63762;51.334;22.108;2023-05-16T20:52:38;101430.73;;;16.53;65.07
75188;BME280;63762;51.334;22.108;2023-05-16T21:02:45;101433.88;;;16.48;64.79
75188;BME280;63762;51.334;22.108;2023-05-16T21:12:53;101425.29;;;16.43;65.21
75188;BME280;63762;51.334;22.108;2023-05-16T21:22:59;101419.29;;;16.49;65.20
75188;BME280;63762;51.334;22.108;2023-05-16T21:33:06;101431.85;;;16.50;65.35
75188;BME280;63762;51.334;22.108;2023-05-16T21:43:13;101427.88;;;16.54;65.25
75188;BME280;63762;51.334;22.108;2023-05-16T21:53:20;101415.55;;;16.50;66.69
75188;BME280;63762;51.334;22.108;2023-05-16T22:03:28;101401.37;;;16.37;67.22
75188;BME280;63762;51.334;22.108;2023-05-16T22:13:35;101395.24;;;16.35;68.29
75188;BME280;63762;51.334;22.108;2023-05-16T22:23:42;101403.22;;;16.27;69.22
75188;BME280;63762;51.334;22.108;2023-05-16T22:33:49;101422.64;;;16.23;69.97
75188;BME280;63762;51.334;22.108;2023-05-16T22:43:56;101406.09;;;16.16;70.44
75188;BME280;63762;51.334;22.108;2023-05-16T22:54:03;101404.63;;;16.03;71.52
75188;BME280;63762;51.334;22.108;2023-05-16T23:04:10;101418.62;;;15.98;72.84
75188;BME280;63762;51.334;22.108;2023-05-16T23:14:18;101426.71;;;15.79;73.84
75188;BME280;63762;51.334;22.108;2023-05-16T23:24:25;101417.60;;;15.50;75.38
75188;BME280;63762;51.334;22.108;2023-05-16T23:34:32;101430.77;;;15.34;76.29
75188;BME280;63762;51.334;22.108;2023-05-16T23:44:39;101413.43;;;15.16;77.60
75188;BME280;63762;51.334;22.108;2023-05-16T23:54:46;101429.70;;;14.75;79.30
